Tacoma Park, South Dakota
Current Conditions -  °F | °C
As of 11:53 PM on Thursday 30 Oct 2014 (Local Time) from KABR Reporting Station
Clear Clear  
Wind Chill: -9°   Ceiling: Unl
Heat Index: -4°   Visibility: 10mi
Dew Point: -7°   Wind: 8mph
Humidity: 81%   Direction: 360°N
Pressure: 30.56"   Gusts: NA
Location:  45.6832°N, 98.2967°W
Report Text: KABR 310453Z AUTO 36007KT 10SM CLR M04/M07 A3056 RMK AO2 SLP367 T10441072
Loading
Personal Weather Stations






























Interactive Weather Map
Tropical Storm Tracking
New forecast layout! Learn more

10-Day Weather Forecast

Advertisements
Track Severe Weather on mobile